Time;durP1;ratioP1;P1;durP2;ratioP2;P2;SDS_P1;SDS_P2;PMS_P1;PMS_P2;Temp;Humidity;BMP_temperature;BMP_pressure;BME280_temperature;BME280_humidity;BME280_pressure;Samples;Min_cycle;Max_cycle;Signal;HPM_P1;HPM_P2
2023/06/01 00:00:24;;;;;;;18.73;10.70;;;15.30;99.90;;;;;;5093130;28;20233;-74
2023/06/01 00:02:50;;;;;;;16.67;10.60;;;15.20;99.90;;;;;;5094507;28;20168;-75
2023/06/01 00:05:16;;;;;;;16.37;11.27;;;15.20;99.90;;;;;;5094413;28;20604;-76
2023/06/01 00:07:41;;;;;;;15.60;11.00;;;15.20;99.90;;;;;;5094467;28;20164;-75
2023/06/01 00:10:08;;;;;;;15.73;10.90;;;15.20;99.90;;;;;;5094186;28;20619;-75
2023/06/01 00:12:33;;;;;;;16.60;11.13;;;15.10;99.90;;;;;;5094111;28;20172;-75
2023/06/01 00:14:59;;;;;;;15.00;9.03;;;15.10;99.90;;;;;;5094387;28;20558;-75
2023/06/01 00:17:25;;;;;;;13.50;10.40;;;15.00;99.90;;;;;;5093822;28;20179;-75
2023/06/01 00:19:52;;;;;;;15.83;10.60;;;14.90;99.90;;;;;;5094276;28;20179;-75
2023/06/01 00:22:19;;;;;;;16.07;10.80;;;14.90;99.90;;;;;;5094200;28;20257;-75
2023/06/01 00:24:44;;;;;;;15.63;11.13;;;14.90;99.90;;;;;;5094053;28;20183;-75
2023/06/01 00:27:10;;;;;;;16.00;11.70;;;14.90;99.90;;;;;;5093871;28;20179;-75
2023/06/01 00:29:36;;;;;;;14.87;12.27;;;14.80;99.90;;;;;;5094036;28;20172;-75
2023/06/01 00:32:01;;;;;;;16.43;11.77;;;14.80;99.90;;;;;;5094321;28;20221;-75
2023/06/01 00:34:27;;;;;;;19.27;11.10;;;14.80;99.90;;;;;;5093888;28;20216;-74
2023/06/01 00:36:53;;;;;;;15.87;10.93;;;14.70;99.90;;;;;;5093980;28;20631;-76
2023/06/01 00:39:18;;;;;;;18.07;12.40;;;14.70;99.90;;;;;;5093675;28;20580;-77
2023/06/01 00:41:44;;;;;;;16.27;11.23;;;14.60;99.90;;;;;;5093439;28;20168;-75
2023/06/01 00:44:10;;;;;;;20.50;11.80;;;14.60;99.90;;;;;;5093757;28;20203;-75
2023/06/01 00:46:37;;;;;;;16.03;11.50;;;14.60;99.90;;;;;;5092374;28;20631;-75
2023/06/01 00:49:02;;;;;;;15.77;10.87;;;14.60;99.90;;;;;;5092487;28;20174;-74
2023/06/01 00:51:28;;;;;;;19.97;12.40;;;14.50;99.90;;;;;;5093541;28;20171;-75
2023/06/01 00:53:55;;;;;;;16.50;12.00;;;14.50;99.90;;;;;;5093464;28;20192;-76
2023/06/01 00:56:21;;;;;;;20.30;11.50;;;14.50;99.90;;;;;;5093178;28;20156;-75
2023/06/01 00:58:47;;;;;;;18.53;12.27;;;14.40;99.90;;;;;;5093360;28;20667;-75
2023/06/01 01:01:18;;;;;;;16.67;11.57;;;14.40;99.90;;;;;;5093968;28;20164;-75
2023/06/01 01:03:49;;;;;;;17.70;11.73;;;14.40;99.90;;;;;;5093592;28;20183;-76
2023/06/01 01:06:33;;;;;;;15.13;11.77;;;14.30;99.90;;;;;;5093294;28;20628;-75
2023/06/01 01:09:14;;;;;;;16.40;11.87;;;14.30;99.90;;;;;;5093458;28;20164;-76
2023/06/01 01:11:43;;;;;;;16.43;11.70;;;14.30;99.90;;;;;;5093352;28;20194;-74
2023/06/01 01:14:21;;;;;;;16.37;11.60;;;14.20;99.90;;;;;;5093230;28;20176;-75
2023/06/01 01:17:02;;;;;;;15.60;11.83;;;14.20;99.90;;;;;;5093439;28;20176;-76
2023/06/01 01:19:50;;;;;;;15.33;12.37;;;14.10;99.90;;;;;;5093277;28;20656;-76
2023/06/01 01:22:51;;;;;;;16.27;12.10;;;14.10;99.90;;;;;;5093483;28;20258;-76
2023/06/01 01:25:46;;;;;;;19.23;12.07;;;14.10;99.90;;;;;;5092919;28;20191;-76
2023/06/01 01:28:27;;;;;;;16.87;12.23;;;14.00;99.90;;;;;;5052676;28;20577;-75
2023/06/01 01:30:55;;;;;;;17.57;10.70;;;14.00;99.90;;;;;;5097569;28;20202;-76
2023/06/01 01:33:21;;;;;;;17.17;11.43;;;14.00;99.90;;;;;;5097143;28;20311;-76
2023/06/01 01:35:49;;;;;;;16.93;12.20;;;13.90;99.90;;;;;;5097616;28;20171;-74
2023/06/01 01:38:15;;;;;;;19.63;12.33;;;13.90;99.90;;;;;;5097443;28;20258;-76
2023/06/01 01:40:41;;;;;;;17.70;12.80;;;13.80;99.90;;;;;;5096984;28;20276;-76
2023/06/01 01:43:07;;;;;;;18.93;12.50;;;13.80;99.90;;;;;;5097544;28;20171;-75
2023/06/01 01:45:32;;;;;;;22.13;12.50;;;13.80;99.90;;;;;;5097291;28;20203;-76
2023/06/01 01:48:17;;;;;;;19.37;12.77;;;13.70;99.90;;;;;;5097180;28;20160;-75
2023/06/01 01:50:55;;;;;;;18.00;12.03;;;13.70;99.90;;;;;;5095212;28;20174;-76
2023/06/01 01:53:23;;;;;;;20.03;12.30;;;13.70;99.90;;;;;;5096885;28;20171;-76
2023/06/01 01:55:50;;;;;;;20.47;13.20;;;13.60;99.90;;;;;;5097203;28;20175;-76
2023/06/01 01:58:17;;;;;;;19.00;13.47;;;13.60;99.90;;;;;;5096936;28;20690;-76
2023/06/01 02:00:43;;;;;;;18.13;12.47;;;13.70;99.90;;;;;;5095590;28;20511;-75
2023/06/01 02:03:17;;;;;;;17.33;13.20;;;13.60;99.90;;;;;;5097130;28;20251;-76
2023/06/01 02:05:44;;;;;;;20.70;13.10;;;13.50;99.90;;;;;;5096802;28;20196;-76
2023/06/01 02:08:09;;;;;;;24.17;13.53;;;13.50;99.90;;;;;;5096321;28;20167;-75
2023/06/01 02:10:35;;;;;;;18.90;13.00;;;13.50;99.90;;;;;;5096750;28;20543;-75
2023/06/01 02:13:01;;;;;;;19.63;13.17;;;13.40;99.90;;;;;;5096747;28;20260;-75
2023/06/01 02:15:27;;;;;;;23.13;13.67;;;13.40;99.90;;;;;;5096685;28;20171;-75
2023/06/01 02:17:53;;;;;;;19.90;13.47;;;13.40;99.90;;;;;;5096924;28;20264;-76
2023/06/01 02:20:19;;;;;;;19.20;13.73;;;13.30;99.90;;;;;;5096525;28;20255;-77
2023/06/01 02:22:45;;;;;;;20.60;13.00;;;13.30;99.90;;;;;;5096312;28;20195;-75
2023/06/01 02:25:11;;;;;;;18.13;12.63;;;13.30;99.90;;;;;;5096433;28;20214;-76
2023/06/01 02:27:36;;;;;;;18.83;13.50;;;13.30;99.90;;;;;;5096522;28;20164;-76
2023/06/01 02:30:03;;;;;;;20.40;13.47;;;13.30;99.90;;;;;;5096388;28;20168;-75
2023/06/01 02:32:30;;;;;;;18.67;13.73;;;13.20;99.90;;;;;;5096278;28;20183;-74
2023/06/01 02:34:56;;;;;;;20.23;14.50;;;13.30;99.90;;;;;;5096441;28;20259;-75
2023/06/01 02:37:21;;;;;;;18.37;13.37;;;13.30;99.90;;;;;;5096005;28;20199;-76
2023/06/01 02:39:47;;;;;;;21.47;14.60;;;13.20;99.90;;;;;;5095587;28;20179;-75
2023/06/01 02:42:13;;;;;;;22.43;14.43;;;13.10;99.90;;;;;;5096001;28;20340;-74
2023/06/01 02:44:38;;;;;;;22.87;14.97;;;13.10;99.90;;;;;;5095986;28;20171;-76
2023/06/01 02:47:05;;;;;;;25.60;15.87;;;13.00;99.90;;;;;;5096140;28;20589;-75
2023/06/01 02:49:31;;;;;;;19.77;14.37;;;12.90;99.90;;;;;;5095935;28;20171;-76
2023/06/01 02:51:56;;;;;;;24.83;15.50;;;12.90;99.90;;;;;;5095539;28;20218;-75
2023/06/01 02:54:22;;;;;;;23.93;15.50;;;12.90;99.90;;;;;;5095908;28;20172;-76
2023/06/01 02:56:48;;;;;;;23.13;15.43;;;12.90;99.90;;;;;;5095641;28;20262;-76
2023/06/01 02:59:13;;;;;;;25.57;16.43;;;12.80;99.90;;;;;;5095883;28;20187;-76
2023/06/01 03:01:39;;;;;;;25.00;13.83;;;12.70;99.90;;;;;;5096031;28;20179;-75
2023/06/01 03:04:04;;;;;;;26.27;16.63;;;12.70;99.90;;;;;;5095472;28;20226;-75
2023/06/01 03:06:37;;;;;;;27.70;16.40;;;12.70;99.90;;;;;;5095236;28;20290;-75
2023/06/01 03:09:03;;;;;;;21.83;14.53;;;12.70;99.90;;;;;;5095579;28;20168;-75
2023/06/01 03:11:29;;;;;;;24.57;15.47;;;12.60;99.90;;;;;;5095246;28;20202;-75
2023/06/01 03:13:56;;;;;;;24.70;16.00;;;12.50;99.90;;;;;;5095582;28;20200;-75
2023/06/01 03:16:23;;;;;;;29.63;17.03;;;12.50;99.90;;;;;;5095490;28;20187;-75
2023/06/01 03:18:48;;;;;;;25.73;15.73;;;12.50;99.90;;;;;;5094869;28;20161;-74
2023/06/01 03:21:15;;;;;;;26.07;16.70;;;12.50;99.90;;;;;;5094904;28;20639;-75
2023/06/01 03:23:43;;;;;;;25.17;16.43;;;12.50;99.90;;;;;;5095162;28;20183;-75
2023/06/01 03:26:12;;;;;;;28.60;15.20;;;12.50;99.90;;;;;;5095390;28;20242;-75
2023/06/01 03:28:38;;;;;;;33.23;17.07;;;12.50;99.90;;;;;;5094995;28;20186;-75
2023/06/01 03:31:04;;;;;;;26.53;16.93;;;12.40;99.90;;;;;;5095073;28;20267;-76
2023/06/01 03:33:30;;;;;;;27.83;17.47;;;12.40;99.90;;;;;;5094688;28;20232;-76
2023/06/01 03:35:56;;;;;;;24.10;16.47;;;12.40;99.90;;;;;;5094808;28;20164;-76
2023/06/01 03:38:22;;;;;;;32.17;17.17;;;12.40;99.90;;;;;;5095031;28;20168;-76
2023/06/01 03:40:47;;;;;;;24.90;15.97;;;12.40;99.90;;;;;;5094748;28;20176;-76
2023/06/01 03:43:13;;;;;;;28.23;17.43;;;12.30;99.90;;;;;;5094754;28;20611;-76
2023/06/01 03:45:38;;;;;;;29.53;16.93;;;12.30;99.90;;;;;;5094408;28;20207;-76
2023/06/01 03:48:05;;;;;;;24.47;16.93;;;12.30;99.90;;;;;;5094682;28;20160;-76
2023/06/01 03:50:30;;;;;;;29.63;17.27;;;12.30;99.90;;;;;;5094355;28;20266;-76
2023/06/01 03:52:56;;;;;;;31.73;18.60;;;12.40;99.90;;;;;;5091453;28;20642;-76
2023/06/01 03:55:22;;;;;;;31.67;17.83;;;12.40;99.90;;;;;;5094370;28;20247;-75
2023/06/01 03:57:48;;;;;;;29.10;18.70;;;12.40;99.90;;;;;;5094104;28;20251;-78
2023/06/01 04:00:20;;;;;;;27.83;18.17;;;12.40;99.90;;;;;;5094164;28;20251;-77
2023/06/01 04:02:56;;;;;;;27.70;17.10;;;12.50;99.90;;;;;;5094658;28;20643;-76
2023/06/01 04:05:23;;;;;;;25.00;17.83;;;12.40;99.90;;;;;;5094019;28;20207;-76
2023/06/01 04:07:50;;;;;;;30.33;18.07;;;12.50;99.90;;;;;;5094018;28;20172;-75
2023/06/01 04:10:16;;;;;;;28.80;18.97;;;12.40;99.90;;;;;;5093919;28;20183;-76
2023/06/01 04:12:48;;;;;;;27.17;17.83;;;12.30;99.90;;;;;;5094281;28;20168;-74
2023/06/01 04:15:16;;;;;;;24.63;17.10;;;12.20;99.90;;;;;;5094004;28;20182;-76
2023/06/01 04:17:43;;;;;;;29.73;17.97;;;12.20;99.90;;;;;;5094139;28;20564;-77
2023/06/01 04:20:11;;;;;;;27.47;18.80;;;12.10;99.90;;;;;;5093651;28;20252;-77
2023/06/01 04:22:37;;;;;;;27.73;18.23;;;12.20;99.90;;;;;;5093508;28;20179;-76
2023/06/01 04:25:16;;;;;;;26.97;18.33;;;12.20;99.90;;;;;;5094343;28;20196;-76
2023/06/01 04:27:46;;;;;;;32.43;18.73;;;12.20;99.90;;;;;;5093828;28;20271;-76
2023/06/01 04:30:13;;;;;;;27.00;18.43;;;12.20;99.90;;;;;;5093655;28;20242;-75
2023/06/01 04:32:39;;;;;;;28.13;16.97;;;12.20;99.90;;;;;;5093318;28;20175;-75
2023/06/01 04:35:06;;;;;;;25.67;17.17;;;12.20;99.90;;;;;;5093831;28;20627;-75
2023/06/01 04:37:34;;;;;;;28.87;17.83;;;12.30;99.90;;;;;;5093370;28;20278;-77
2023/06/01 04:40:00;;;;;;;33.00;17.83;;;12.20;99.90;;;;;;5093609;28;20164;-77
2023/06/01 04:42:26;;;;;;;31.60;18.17;;;12.20;99.90;;;;;;5093432;28;20172;-76
2023/06/01 04:44:51;;;;;;;26.87;18.20;;;12.30;99.90;;;;;;5093147;28;20182;-77
2023/06/01 04:47:17;;;;;;;29.13;18.67;;;12.20;99.90;;;;;;5093297;28;20518;-76
2023/06/01 04:49:43;;;;;;;29.33;19.27;;;12.10;99.90;;;;;;5092746;28;20168;-77
2023/06/01 04:52:12;;;;;;;31.57;19.73;;;12.10;99.90;;;;;;5092758;28;20217;-77
2023/06/01 04:54:38;;;;;;;31.13;19.30;;;12.00;99.90;;;;;;5093364;28;20168;-76
2023/06/01 04:57:06;;;;;;;35.83;18.97;;;12.10;99.90;;;;;;5093216;28;20176;-76
2023/06/01 04:59:32;;;;;;;32.27;19.53;;;12.20;99.90;;;;;;5092966;28;20192;-77
2023/06/01 05:01:58;;;;;;;33.57;20.07;;;12.30;99.90;;;;;;5092553;28;20195;-76
2023/06/01 05:04:23;;;;;;;28.27;18.93;;;12.40;99.90;;;;;;5093401;28;20168;-76
2023/06/01 05:06:49;;;;;;;28.43;18.97;;;12.50;99.90;;;;;;5092647;28;20666;-76
2023/06/01 05:09:15;;;;;;;30.07;19.27;;;12.50;99.90;;;;;;5092031;28;20161;-77
2023/06/01 05:11:40;;;;;;;29.63;19.10;;;12.60;99.90;;;;;;5092571;28;20171;-77
2023/06/01 05:14:07;;;;;;;32.80;19.30;;;12.60;99.90;;;;;;5092965;28;20251;-76
2023/06/01 05:16:33;;;;;;;32.00;20.20;;;12.60;99.90;;;;;;5092329;28;20176;-76
2023/06/01 05:18:58;;;;;;;34.43;21.03;;;12.40;99.90;;;;;;5090854;28;20172;-76
2023/06/01 05:21:24;;;;;;;39.07;22.50;;;12.40;99.90;;;;;;5092677;28;20627;-75
2023/06/01 05:23:50;;;;;;;35.87;22.33;;;12.40;99.90;;;;;;5092527;28;20218;-77
2023/06/01 05:26:16;;;;;;;35.60;21.10;;;12.50;99.90;;;;;;5092472;28;20697;-77
2023/06/01 05:28:42;;;;;;;42.03;21.73;;;12.50;99.90;;;;;;5092146;28;20167;-76
2023/06/01 05:31:07;;;;;;;33.80;20.80;;;12.50;99.90;;;;;;5092410;28;20190;-77
2023/06/01 05:33:33;;;;;;;32.63;22.40;;;12.60;99.90;;;;;;5091673;28;20212;-77
2023/06/01 05:35:59;;;;;;;33.37;22.57;;;12.40;99.90;;;;;;5092331;28;20676;-76
2023/06/01 05:38:25;;;;;;;39.97;24.93;;;12.40;99.90;;;;;;5092381;28;20259;-76
2023/06/01 05:40:51;;;;;;;38.00;24.07;;;12.40;99.90;;;;;;5091749;28;20678;-76
2023/06/01 05:43:16;;;;;;;41.23;23.20;;;12.30;99.90;;;;;;5092108;28;20198;-78
2023/06/01 05:45:42;;;;;;;36.90;23.57;;;12.20;99.90;;;;;;5091334;28;20630;-78
2023/06/01 05:48:08;;;;;;;34.90;23.13;;;12.30;99.90;;;;;;5092267;28;20168;-77
2023/06/01 05:50:33;;;;;;;34.93;23.50;;;12.10;99.90;;;;;;5091617;28;20183;-76
2023/06/01 05:52:59;;;;;;;42.70;23.83;;;12.20;99.90;;;;;;5091797;28;20172;-76
2023/06/01 05:55:25;;;;;;;42.03;23.13;;;12.50;99.90;;;;;;5092325;28;20168;-75
2023/06/01 05:57:50;;;;;;;38.07;23.17;;;12.40;99.90;;;;;;5091448;28;20180;-76
2023/06/01 06:00:17;;;;;;;34.07;22.47;;;12.40;99.90;;;;;;5091906;28;20175;-76
2023/06/01 06:02:45;;;;;;;38.07;23.53;;;12.40;99.90;;;;;;5092261;28;20168;-78
2023/06/01 06:05:11;;;;;;;38.67;23.37;;;12.60;99.90;;;;;;5092284;28;20673;-78
2023/06/01 06:07:37;;;;;;;35.80;24.13;;;12.70;99.90;;;;;;5089842;28;20195;-78
2023/06/01 06:10:03;;;;;;;36.73;23.43;;;12.70;99.90;;;;;;5091891;28;20254;-77
2023/06/01 06:12:29;;;;;;;34.33;21.93;;;12.70;99.90;;;;;;5089779;28;20173;-77
2023/06/01 06:14:55;;;;;;;33.77;20.60;;;12.70;99.90;;;;;;5092569;28;20232;-77
2023/06/01 06:17:21;;;;;;;34.27;22.97;;;12.80;99.90;;;;;;5095993;28;20565;-78
2023/06/01 06:19:47;;;;;;;35.03;22.33;;;12.70;99.90;;;;;;5095101;28;20176;-76
2023/06/01 06:22:13;;;;;;;34.10;23.30;;;12.90;99.90;;;;;;5095732;28;20279;-78
2023/06/01 06:24:39;;;;;;;33.97;22.63;;;13.20;99.90;;;;;;5094930;28;20187;-77
2023/06/01 06:27:05;;;;;;;34.40;22.80;;;13.20;99.90;;;;;;5093478;28;20253;-75
2023/06/01 06:29:31;;;;;;;36.30;22.67;;;13.00;99.90;;;;;;5094736;28;20172;-78
2023/06/01 06:31:57;;;;;;;36.27;22.70;;;12.90;99.90;;;;;;5095032;28;20172;-76
2023/06/01 06:34:23;;;;;;;35.23;23.83;;;13.00;99.90;;;;;;5095225;28;20239;-76
2023/06/01 06:36:48;;;;;;;33.53;22.27;;;12.80;99.90;;;;;;5095002;28;20638;-76
2023/06/01 06:39:15;;;;;;;32.93;22.67;;;12.70;99.90;;;;;;5095030;28;20168;-77
2023/06/01 06:41:41;;;;;;;32.27;22.27;;;12.70;99.90;;;;;;5094681;28;20187;-76
2023/06/01 06:44:07;;;;;;;32.87;22.73;;;12.80;99.90;;;;;;5094779;28;20164;-77
2023/06/01 06:46:34;;;;;;;34.53;22.70;;;12.90;99.90;;;;;;5094989;28;20208;-75
2023/06/01 06:48:59;;;;;;;31.40;21.70;;;12.90;99.90;;;;;;5094928;28;20626;-77
2023/06/01 06:51:27;;;;;;;35.03;23.37;;;13.10;99.90;;;;;;5094785;28;20191;-77
2023/06/01 06:53:52;;;;;;;33.67;22.47;;;13.10;99.90;;;;;;5094550;28;20167;-78
2023/06/01 06:56:18;;;;;;;33.03;22.27;;;12.90;99.90;;;;;;5094288;28;20176;-77
2023/06/01 06:58:45;;;;;;;29.60;19.77;;;13.00;99.90;;;;;;5094046;28;20188;-76
2023/06/01 07:01:10;;;;;;;32.57;21.53;;;13.10;99.90;;;;;;5094869;28;20194;-75
2023/06/01 07:03:38;;;;;;;31.97;20.83;;;13.30;99.90;;;;;;5093456;28;20252;-77
2023/06/01 07:06:06;;;;;;;33.03;22.13;;;13.40;99.90;;;;;;5093752;28;20196;-74
2023/06/01 07:08:34;;;;;;;35.57;21.43;;;13.70;99.90;;;;;;5094069;28;20202;-79
2023/06/01 07:11:00;;;;;;;30.97;20.43;;;13.80;99.90;;;;;;5092781;28;20207;-79
2023/06/01 07:13:26;;;;;;;28.50;20.80;;;14.10;98.30;;;;;;5094270;28;20258;-78
2023/06/01 07:15:53;;;;;;;31.23;19.80;;;14.10;92.00;;;;;;5092757;28;20313;-78
2023/06/01 07:18:19;;;;;;;29.20;19.40;;;14.40;90.90;;;;;;5094096;28;20184;-76
2023/06/01 07:20:44;;;;;;;30.13;19.80;;;14.40;82.00;;;;;;5094416;28;20531;-74
2023/06/01 07:23:12;;;;;;;29.20;20.40;;;14.60;85.40;;;;;;5078034;28;20643;-77
2023/06/01 07:25:38;;;;;;;29.67;18.43;;;14.90;62.30;;;;;;5073600;28;20208;-78
2023/06/01 07:28:08;;;;;;;27.43;18.53;;;15.30;59.10;;;;;;5073527;28;20237;-79
2023/06/01 07:30:36;;;;;;;30.60;20.13;;;16.00;45.30;;;;;;5072684;28;20271;-79
2023/06/01 07:33:05;;;;;;;26.27;18.40;;;16.50;15.00;;;;;;5073302;28;20212;-78
2023/06/01 07:35:32;;;;;;;28.10;18.73;;;17.10;6.50;;;;;;5073818;28;20713;-77
2023/06/01 07:37:58;;;;;;;24.10;18.03;;;17.10;1.30;;;;;;5076285;28;20521;-76
2023/06/01 07:40:23;;;;;;;23.07;17.17;;;17.10;1.00;;;;;;5075161;28;20263;-77
2023/06/01 07:42:49;;;;;;;23.75;17.65;;;17.70;1.00;;;;;;5073881;28;20184;-78
2023/06/01 07:45:15;;;;;;;26.90;20.23;;;18.50;1.00;;;;;;5078707;28;20565;-77
2023/06/01 07:47:41;;;;;;;34.50;25.25;;;18.30;1.00;;;;;;5075475;28;20237;-79
2023/06/01 07:50:07;;;;;;;28.50;21.20;;;18.00;1.00;;;;;;5072852;28;20168;-76
2023/06/01 07:52:33;;;;;;;23.88;16.95;;;18.40;1.00;;;;;;5072084;28;20195;-77
2023/06/01 07:54:58;;;;;;;21.23;16.88;;;18.20;1.00;;;;;;5077720;28;20184;-79
2023/06/01 07:57:24;;;;;;;20.15;16.00;;;18.60;1.00;;;;;;5082158;28;20192;-79
2023/06/01 07:59:50;;;;;;;21.90;16.77;;;19.90;1.00;;;;;;5075377;28;20204;-77
2023/06/01 08:02:16;;;;;;;24.42;16.50;;;21.00;1.00;;;;;;5077210;28;20608;-78
2023/06/01 08:04:41;;;;;;;21.35;16.13;;;22.10;1.00;;;;;;5071546;28;20659;-80
2023/06/01 08:07:08;;;;;;;20.67;17.20;;;22.30;99.90;;;;;;5076134;28;20246;-75
2023/06/01 08:09:37;;;;;;;20.13;16.27;;;23.30;99.90;;;;;;5074400;28;20255;-76
2023/06/01 08:12:03;;;;;;;20.15;17.00;;;22.50;99.90;;;;;;5074271;28;20250;-76
2023/06/01 08:14:32;;;;;;;20.17;16.73;;;22.50;1.00;;;;;;5088432;28;20205;-77
2023/06/01 08:16:57;;;;;;;19.83;16.42;;;22.30;1.00;;;;;;5081178;28;20204;-78
2023/06/01 08:19:23;;;;;;;19.67;17.65;;;22.40;1.00;;;;;;5070611;28;20176;-76
2023/06/01 08:21:48;;;;;;;19.05;17.05;;;21.50;1.00;;;;;;5072079;28;20582;-75
2023/06/01 08:24:15;;;;;;;22.08;18.55;;;20.40;1.00;;;;;;5071195;28;20192;-75
2023/06/01 08:26:41;;;;;;;21.30;16.15;;;20.70;1.00;;;;;;5074498;28;20204;-75
2023/06/01 08:29:06;;;;;;;23.13;18.80;;;19.70;1.00;;;;;;5070923;28;20200;-76
2023/06/01 08:31:32;;;;;;;21.85;17.65;;;19.30;1.00;;;;;;5083021;28;20708;-78
2023/06/01 08:33:58;;;;;;;20.30;16.50;;;18.90;1.00;;;;;;5089028;28;20248;-74
2023/06/01 08:36:23;;;;;;;20.08;15.13;;;19.90;1.00;;;;;;5075171;28;20295;-76
2023/06/01 08:38:51;;;;;;;21.80;16.58;;;20.90;1.00;;;;;;5071497;28;20208;-76
2023/06/01 08:41:25;;;;;;;21.48;15.38;;;21.20;1.00;;;;;;5072518;28;20191;-74
2023/06/01 08:43:58;;;;;;;17.05;15.30;;;21.00;1.00;;;;;;5079621;28;20187;-74
2023/06/01 08:46:25;;;;;;;19.80;15.18;;;21.80;1.00;;;;;;5078703;28;20216;-74
2023/06/01 08:48:54;;;;;;;19.63;15.25;;;22.80;99.90;;;;;;5080403;28;20270;-74
2023/06/01 08:51:23;;;;;;;18.00;15.50;;;23.00;99.90;;;;;;5077407;28;20259;-74
2023/06/01 08:53:51;;;;;;;20.90;16.23;;;23.80;1.00;;;;;;5075344;28;20237;-75
2023/06/01 08:56:16;;;;;;;18.38;16.05;;;23.60;1.00;;;;;;5071587;28;20648;-76
2023/06/01 08:58:44;;;;;;;20.52;15.27;;;23.40;99.90;;;;;;5083351;28;20203;-75
2023/06/01 09:01:15;;;;;;;20.90;15.77;;;23.90;99.90;;;;;;5071577;28;20189;-76
2023/06/01 09:03:41;;;;;;;17.45;15.43;;;24.40;99.90;;;;;;5077133;28;20202;-77
2023/06/01 09:06:07;;;;;;;20.48;15.10;;;24.50;1.00;;;;;;5092041;28;20642;-76
2023/06/01 09:08:32;;;;;;;19.73;15.02;;;26.40;1.00;;;;;;5074788;28;20184;-76
2023/06/01 09:10:59;;;;;;;18.80;14.40;;;26.90;99.90;;;;;;5075338;28;20180;-75
2023/06/01 09:13:36;;;;;;;20.63;15.05;;;26.90;48.10;;;;;;5081549;28;20168;-76
2023/06/01 09:16:03;;;;;;;18.63;14.70;;;24.00;1.00;;;;;;5071518;28;20211;-76
2023/06/01 09:18:28;;;;;;;20.65;15.80;;;23.10;1.00;;;;;;5079787;28;20208;-74
2023/06/01 09:20:56;;;;;;;19.67;14.43;;;23.90;1.00;;;;;;5074782;28;20278;-75
2023/06/01 09:23:26;;;;;;;22.13;15.15;;;24.30;1.00;;;;;;5072094;28;20195;-75
2023/06/01 09:26:25;;;;;;;18.95;14.70;;;24.80;1.00;;;;;;5072209;28;20212;-75
2023/06/01 09:28:56;;;;;;;17.63;13.85;;;25.00;1.00;;;;;;5010682;28;20185;-76
2023/06/01 09:31:42;;;;;;;16.67;14.85;;;25.20;1.00;;;;;;5010426;28;20422;-74
2023/06/01 09:34:15;;;;;;;16.85;13.75;;;26.10;99.90;;;;;;5025793;28;20318;-76
2023/06/01 09:36:41;;;;;;;16.33;12.38;;;26.80;99.90;;;;;;5012190;28;20232;-76
2023/06/01 09:39:12;;;;;;;15.18;13.60;;;27.00;99.90;;;;;;5008634;28;20197;-76
2023/06/01 09:41:49;;;;;;;14.90;12.88;;;26.90;99.90;;;;;;5006610;28;20178;-75
2023/06/01 09:44:26;;;;;;;22.90;14.70;;;28.50;1.00;;;;;;5008927;28;20507;-76
2023/06/01 09:46:54;;;;;;;16.02;13.02;;;27.10;1.00;;;;;;5001980;28;20226;-77
2023/06/01 09:49:21;;;;;;;14.38;11.52;;;27.60;1.00;;;;;;5007622;28;20174;-78
2023/06/01 09:51:47;;;;;;;15.25;11.70;;;28.50;1.00;;;;;;5012747;28;20712;-79
2023/06/01 09:54:26;;;;;;;13.25;11.98;;;29.40;99.90;;;;;;5010352;28;20459;-75
2023/06/01 09:56:53;;;;;;;15.32;12.13;;;27.00;1.00;;;;;;5012520;28;20186;-75
2023/06/01 09:59:24;;;;;;;13.73;12.30;;;25.50;99.90;;;;;;5009289;28;20207;-76
2023/06/01 10:01:54;;;;;;;13.68;11.30;;;26.40;1.00;;;;;;5010589;28;20248;-77
2023/06/01 10:04:25;;;;;;;13.68;11.55;;;26.90;1.00;;;;;;5018895;28;20751;-76
2023/06/01 10:06:53;;;;;;;16.73;12.10;;;27.90;1.00;;;;;;5075677;28;20260;-78
2023/06/01 10:09:20;;;;;;;14.48;11.43;;;29.10;99.90;;;;;;5073224;28;20265;-78
2023/06/01 10:11:54;;;;;;;18.92;12.18;;;29.90;99.90;;;;;;5075626;28;20192;-75
2023/06/01 10:14:24;;;;;;;20.05;12.00;;;28.30;99.90;;;;;;5076725;28;20184;-75
2023/06/01 10:16:52;;;;;;;13.60;12.25;;;28.40;99.90;;;;;;5079722;28;20180;-78
2023/06/01 10:19:20;;;;;;;13.05;11.70;;;26.60;99.90;;;;;;5079858;28;20176;-76
2023/06/01 10:21:46;;;;;;;15.45;11.55;;;26.50;1.00;;;;;;5076861;28;20180;-77
2023/06/01 10:24:16;;;;;;;15.20;11.90;;;27.60;1.00;;;;;;5078350;28;20198;-74
2023/06/01 10:27:20;;;;;;;14.23;12.25;;;26.40;1.00;;;;;;5084854;28;20212;-76
2023/06/01 10:29:46;;;;;;;14.50;12.27;;;25.30;54.50;;;;;;5072652;28;20188;-74
2023/06/01 10:32:37;;;;;;;15.52;12.18;;;25.70;99.90;;;;;;5085365;28;20177;-75
2023/06/01 10:35:07;;;;;;;15.82;12.57;;;25.90;1.00;;;;;;5077192;28;20188;-75
2023/06/01 10:37:33;;;;;;;17.05;12.65;;;26.40;1.00;;;;;;5088864;28;20172;-75
2023/06/01 10:40:18;;;;;;;15.93;12.68;;;25.80;1.00;;;;;;5095532;28;20168;-75
2023/06/01 10:42:44;;;;;;;15.10;11.80;;;26.20;1.00;;;;;;5095305;28;20167;-73
2023/06/01 10:45:28;;;;;;;15.80;11.90;;;26.60;1.00;;;;;;5089009;28;20239;-73
2023/06/01 10:47:54;;;;;;;14.05;11.85;;;27.50;1.00;;;;;;5093742;28;20179;-74
2023/06/01 10:50:20;;;;;;;12.68;11.38;;;28.40;99.90;;;;;;5094289;28;20251;-74
2023/06/01 10:52:46;;;;;;;14.77;11.43;;;27.90;99.90;;;;;;5094742;28;20618;-75
2023/06/01 10:55:15;;;;;;;15.00;12.27;;;27.10;99.90;;;;;;5094940;28;20157;-73
2023/06/01 10:57:45;;;;;;;16.38;12.95;;;26.80;99.90;;;;;;5094919;28;20270;-75
2023/06/01 11:00:20;;;;;;;13.15;11.85;;;26.00;1.00;;;;;;5093444;28;20218;-73
2023/06/01 11:02:54;;;;;;;14.35;12.65;;;26.60;1.00;;;;;;5092930;28;20179;-73
2023/06/01 11:05:43;;;;;;;15.13;11.95;;;26.70;1.00;;;;;;5093704;28;20208;-75
2023/06/01 11:08:30;;;;;;;15.63;13.50;;;26.80;1.00;;;;;;5094038;28;20250;-76
2023/06/01 11:10:56;;;;;;;15.07;12.25;;;26.20;1.00;;;;;;5062761;28;20192;-76
2023/06/01 11:13:30;;;;;;;25.88;12.95;;;26.50;1.00;;;;;;5076105;28;20165;-75
2023/06/01 11:16:04;;;;;;;17.13;12.55;;;27.10;1.00;;;;;;5074253;28;20168;-75
2023/06/01 11:18:57;;;;;;;14.52;11.63;;;27.60;99.90;;;;;;5074919;28;20272;-74
2023/06/01 11:21:28;;;;;;;14.18;12.20;;;26.90;99.90;;;;;;5073322;28;20184;-76
2023/06/01 11:23:56;;;;;;;14.45;12.35;;;26.40;99.90;;;;;;5080052;28;20702;-74
2023/06/01 11:26:34;;;;;;;16.92;11.93;;;24.90;1.00;;;;;;5093573;28;20206;-72
2023/06/01 11:29:07;;;;;;;18.67;12.90;;;25.20;1.00;;;;;;5082968;28;20172;-75
2023/06/01 11:31:38;;;;;;;19.75;13.07;;;25.10;1.00;;;;;;5073201;28;20261;-74
2023/06/01 11:34:04;;;;;;;22.38;13.50;;;24.50;99.90;;;;;;5082049;28;20224;-73
2023/06/01 11:36:36;;;;;;;18.38;13.25;;;25.00;99.90;;;;;;5100532;28;20187;-72
2023/06/01 11:39:02;;;;;;;20.63;12.82;;;25.40;52.00;;;;;;5095683;28;20606;-76
2023/06/01 11:41:28;;;;;;;16.65;13.05;;;26.30;1.00;;;;;;5087513;28;20258;-76
2023/06/01 11:43:58;;;;;;;17.35;12.73;;;27.10;1.00;;;;;;5102679;28;20203;-75
2023/06/01 11:46:26;;;;;;;20.33;13.80;;;26.50;99.90;;;;;;5086243;28;20219;-81
2023/06/01 11:49:08;;;;;;;17.45;13.38;;;25.60;1.00;;;;;;5089014;28;20744;-75
2023/06/01 11:51:38;;;;;;;16.58;14.25;;;24.80;1.00;;;;;;5083305;28;20271;-77
2023/06/01 11:54:06;;;;;;;16.30;13.20;;;24.60;99.90;;;;;;5082547;28;20268;-75
2023/06/01 11:56:34;;;;;;;15.10;11.85;;;24.60;1.00;;;;;;5083557;28;20180;-76
2023/06/01 11:59:01;;;;;;;13.70;10.68;;;24.40;1.00;;;;;;5077081;28;20193;-77
2023/06/01 12:01:28;;;;;;;21.02;12.57;;;23.80;1.00;;;;;;5072315;28;20245;-76
2023/06/01 12:03:56;;;;;;;17.85;14.18;;;24.30;99.90;;;;;;5081011;28;20192;-78
2023/06/01 12:06:25;;;;;;;17.92;12.93;;;24.60;99.90;;;;;;5083616;28;20214;-76
2023/06/01 12:08:52;;;;;;;16.67;13.60;;;24.70;91.50;;;;;;5091469;28;20261;-78
2023/06/01 12:11:21;;;;;;;18.88;12.95;;;24.20;99.90;;;;;;5088487;28;20177;-77
2023/06/01 12:13:48;;;;;;;14.73;11.98;;;24.10;99.90;;;;;;5097125;28;20172;-77
2023/06/01 12:16:16;;;;;;;16.52;12.10;;;24.20;99.90;;;;;;5087916;28;20642;-78
2023/06/01 12:18:42;;;;;;;17.10;12.57;;;23.90;99.90;;;;;;5091080;28;20286;-79
2023/06/01 12:21:13;;;;;;;17.58;13.77;;;23.50;1.00;;;;;;5102566;28;20254;-74
2023/06/01 12:23:39;;;;;;;17.65;13.82;;;23.00;91.40;;;;;;5092071;28;20289;-78
2023/06/01 12:26:07;;;;;;;16.17;13.77;;;22.50;99.90;;;;;;5077611;28;20208;-77
2023/06/01 12:28:49;;;;;;;17.25;13.23;;;22.50;1.00;;;;;;5097079;28;20507;-78
2023/06/01 12:31:15;;;;;;;17.67;13.02;;;23.00;99.90;;;;;;5073678;28;20188;-76
2023/06/01 12:33:46;;;;;;;15.35;12.10;;;23.00;1.00;;;;;;5088529;28;20230;-77